createdAt,value
2018-06-24T00:00:19.592Z,9.22
2018-06-24T00:02:01.895Z,9.19
2018-06-24T00:03:38.086Z,9.17
2018-06-24T00:05:16.196Z,9.12
2018-06-24T00:06:53.271Z,9.14
2018-06-24T00:08:29.174Z,9.16
2018-06-24T00:10:05.199Z,9.18
2018-06-24T00:11:56.576Z,9.18
2018-06-24T00:13:33.883Z,9.19
2018-06-24T00:15:10.059Z,9.24
2018-06-24T00:16:52.178Z,9.26
2018-06-24T00:18:28.365Z,9.30
2018-06-24T00:20:04.442Z,9.35
2018-06-24T00:21:41.329Z,9.34
2018-06-24T00:23:17.784Z,9.32
2018-06-24T00:24:52.975Z,9.29
2018-06-24T00:26:31.520Z,9.28
2018-06-24T00:28:14.873Z,9.33
2018-06-24T00:29:51.824Z,9.35
2018-06-24T00:31:27.666Z,9.35
2018-06-24T00:33:04.461Z,9.41
2018-06-24T00:34:41.638Z,9.37
2018-06-24T00:36:17.384Z,9.37
2018-06-24T00:37:54.296Z,9.38
2018-06-24T00:39:30.498Z,9.39
2018-06-24T00:41:06.044Z,9.40
2018-06-24T00:42:42.874Z,9.44
2018-06-24T00:44:18.007Z,9.42
2018-06-24T00:45:52.946Z,9.39
2018-06-24T00:47:31.400Z,9.40
2018-06-24T00:49:07.334Z,9.40
2018-06-24T00:50:46.397Z,9.39
2018-06-24T00:52:21.604Z,9.38
2018-06-24T00:53:59.731Z,9.39
2018-06-24T00:55:36.331Z,9.45
2018-06-24T00:57:11.927Z,9.50
2018-06-24T00:58:47.184Z,9.52
2018-06-24T01:00:21.910Z,9.52
2018-06-24T01:01:58.854Z,9.52
2018-06-24T01:03:33.823Z,9.53
2018-06-24T01:05:10.442Z,9.53
2018-06-24T01:06:47.194Z,9.52
2018-06-24T01:08:23.340Z,9.50
2018-06-24T01:09:59.967Z,9.52
2018-06-24T01:11:35.342Z,9.52
2018-06-24T01:13:11.462Z,9.55
2018-06-24T01:14:47.335Z,9.54
2018-06-24T01:16:26.683Z,9.54
2018-06-24T01:18:02.121Z,9.64
2018-06-24T01:19:38.630Z,9.69
2018-06-24T01:21:13.745Z,9.66
2018-06-24T01:22:49.854Z,9.68
2018-06-24T01:24:25.101Z,9.76
2018-06-24T01:25:59.966Z,9.78
2018-06-24T01:27:34.816Z,9.79
2018-06-24T01:29:12.126Z,9.76
2018-06-24T01:30:48.146Z,9.73
2018-06-24T01:32:25.319Z,9.72
2018-06-24T01:34:00.123Z,9.72
2018-06-24T01:35:36.265Z,9.65
2018-06-24T01:37:11.225Z,9.64
2018-06-24T01:38:47.777Z,9.63
2018-06-24T01:40:22.959Z,9.60
2018-06-24T01:41:57.871Z,9.57
2018-06-24T01:43:33.554Z,9.61
2018-06-24T01:45:09.669Z,9.59
2018-06-24T01:46:44.692Z,9.61
2018-06-24T01:48:20.788Z,9.68
2018-06-24T01:49:57.878Z,9.71
2018-06-24T01:51:34.323Z,9.76
2018-06-24T01:53:12.268Z,9.79
2018-06-24T01:54:47.393Z,9.84
2018-06-24T01:56:23.077Z,9.83
2018-06-24T01:58:00.719Z,9.82
2018-06-24T01:59:36.383Z,9.79
2018-06-24T02:01:11.623Z,9.78
2018-06-24T02:02:46.958Z,9.73
2018-06-24T02:04:23.588Z,9.71
2018-06-24T02:05:58.450Z,9.72
2018-06-24T02:07:33.516Z,9.69
2018-06-24T02:09:13.820Z,9.59
2018-06-24T02:10:49.236Z,9.55
2018-06-24T02:12:24.728Z,9.54
2018-06-24T02:13:59.614Z,9.54
2018-06-24T02:15:34.308Z,9.51
2018-06-24T02:17:10.473Z,9.50
2018-06-24T02:18:46.529Z,9.50
2018-06-24T02:20:23.241Z,9.50
2018-06-24T02:21:58.129Z,9.47
2018-06-24T02:23:33.342Z,9.48
2018-06-24T02:25:08.295Z,9.44
2018-06-24T02:26:43.562Z,9.37
2018-06-24T02:28:19.022Z,9.36
2018-06-24T02:29:53.910Z,9.35
2018-06-24T02:31:29.546Z,9.35
2018-06-24T02:33:04.891Z,9.31
2018-06-24T02:34:39.926Z,9.29
2018-06-24T02:36:14.979Z,9.25
2018-06-24T02:37:50.679Z,9.22
2018-06-24T02:39:25.336Z,9.24
2018-06-24T02:41:00.156Z,9.20
2018-06-24T02:42:35.740Z,9.22
2018-06-24T02:44:11.035Z,9.22
2018-06-24T02:45:45.712Z,9.22
2018-06-24T02:47:20.500Z,9.31
2018-06-24T02:48:56.064Z,9.24
2018-06-24T02:50:30.680Z,9.22
2018-06-24T02:52:05.614Z,9.23
2018-06-24T02:53:47.441Z,9.19
2018-06-24T02:55:22.725Z,9.18
2018-06-24T02:56:58.429Z,9.20
2018-06-24T02:58:38.139Z,9.21
2018-06-24T03:00:20.369Z,9.17
2018-06-24T03:01:56.288Z,9.13
2018-06-24T03:03:30.924Z,9.15
2018-06-24T03:05:05.645Z,9.17
2018-06-24T03:06:42.926Z,9.13
2018-06-24T03:08:19.246Z,9.12
2018-06-24T03:09:53.919Z,9.11
2018-06-24T03:11:29.022Z,9.11
2018-06-24T03:13:04.554Z,9.13
2018-06-24T03:14:39.336Z,9.15
2018-06-24T03:16:14.067Z,9.12
2018-06-24T03:17:49.338Z,9.12
2018-06-24T03:19:24.365Z,9.13
2018-06-24T03:20:59.039Z,9.12
2018-06-24T03:22:33.770Z,9.16
2018-06-24T03:24:08.491Z,9.19
2018-06-24T03:25:43.212Z,9.17
2018-06-24T03:27:18.223Z,9.22
2018-06-24T03:28:52.918Z,9.22
2018-06-24T03:30:27.643Z,9.19
2018-06-24T03:32:02.339Z,9.18
2018-06-24T03:33:40.980Z,9.16
2018-06-24T03:35:15.612Z,9.17
2018-06-24T03:36:50.331Z,9.25
2018-06-24T03:38:25.087Z,9.28
2018-06-24T03:39:59.835Z,9.25
2018-06-24T03:41:34.497Z,9.27
2018-06-24T03:43:09.345Z,9.36
2018-06-24T03:44:43.998Z,9.39
2018-06-24T03:46:18.931Z,9.41
2018-06-24T03:47:53.647Z,9.42
2018-06-24T03:49:28.765Z,9.41
2018-06-24T03:51:03.454Z,9.46
2018-06-24T03:52:38.266Z,9.49
2018-06-24T03:54:12.893Z,9.50
2018-06-24T03:55:47.559Z,9.52
2018-06-24T03:57:22.621Z,9.55
2018-06-24T03:58:57.242Z,9.60
2018-06-24T04:00:31.932Z,9.62
2018-06-24T04:02:07.079Z,9.68
2018-06-24T04:03:45.848Z,9.69
2018-06-24T04:05:21.216Z,9.72
2018-06-24T04:06:55.822Z,9.75
2018-06-24T04:08:30.530Z,9.80
2018-06-24T04:10:05.234Z,9.81
2018-06-24T04:11:41.335Z,9.91
2018-06-24T04:13:16.946Z,9.96
2018-06-24T04:14:51.569Z,10.00
2018-06-24T04:16:26.189Z,10.04
2018-06-24T04:18:00.904Z,10.09
2018-06-24T04:19:36.717Z,10.12
2018-06-24T04:21:13.818Z,10.19
2018-06-24T04:22:48.442Z,10.20
2018-06-24T04:24:23.133Z,10.21
2018-06-24T04:25:57.795Z,10.25
2018-06-24T04:27:32.875Z,10.26
2018-06-24T04:29:08.274Z,10.31
2018-06-24T04:30:42.964Z,10.35
2018-06-24T04:32:17.684Z,10.38
2018-06-24T04:33:52.578Z,10.44
2018-06-24T04:35:28.847Z,10.44
2018-06-24T04:37:03.547Z,10.51
2018-06-24T04:38:38.184Z,10.60
2018-06-24T04:40:12.952Z,10.66
2018-06-24T04:41:47.586Z,10.72
2018-06-24T04:43:23.224Z,10.71
2018-06-24T04:44:58.323Z,10.74
2018-06-24T04:46:34.463Z,10.81
2018-06-24T04:48:09.167Z,10.90
2018-06-24T04:49:43.876Z,10.97
2018-06-24T04:51:19.079Z,11.06
2018-06-24T04:52:53.742Z,11.09
2018-06-24T04:54:28.418Z,11.05
2018-06-24T04:56:03.893Z,11.10
2018-06-24T04:57:38.823Z,11.16
2018-06-24T04:59:13.582Z,11.11
2018-06-24T05:00:48.505Z,11.11
2018-06-24T05:02:24.982Z,11.11
2018-06-24T05:03:59.659Z,11.21
2018-06-24T05:05:34.586Z,11.27
2018-06-24T05:07:09.230Z,11.36
2018-06-24T05:08:43.984Z,11.40
2018-06-24T05:10:18.635Z,11.47
2018-06-24T05:11:53.339Z,11.51
2018-06-24T05:13:28.367Z,11.54
2018-06-24T05:15:04.709Z,11.68
2018-06-24T05:16:42.786Z,11.76
2018-06-24T05:18:17.420Z,11.81
2018-06-24T05:19:52.106Z,11.91
2018-06-24T05:21:27.071Z,11.92
2018-06-24T05:23:03.293Z,11.99
2018-06-24T05:24:37.960Z,12.10
2018-06-24T05:26:13.185Z,12.24
2018-06-24T05:27:47.792Z,12.38
2018-06-24T05:29:22.720Z,12.30
2018-06-24T05:30:57.436Z,12.35
2018-06-24T05:32:32.812Z,12.41
2018-06-24T05:34:08.046Z,12.65
2018-06-24T05:35:42.727Z,12.69
2018-06-24T05:37:17.812Z,12.78
2018-06-24T05:38:52.484Z,12.90
2018-06-24T05:40:27.139Z,12.99
2018-06-24T05:42:01.874Z,13.18
2018-06-24T05:43:36.571Z,13.29
2018-06-24T05:45:14.583Z,13.45
2018-06-24T05:46:49.259Z,13.51
2018-06-24T05:48:23.881Z,13.83
2018-06-24T05:49:58.838Z,13.77
2018-06-24T05:51:34.063Z,13.99
2018-06-24T05:53:09.172Z,13.82
2018-06-24T05:54:44.094Z,13.66
2018-06-24T05:56:18.767Z,13.74
2018-06-24T05:57:53.917Z,14.05
2018-06-24T05:59:28.622Z,14.05
2018-06-24T06:01:03.742Z,14.10
2018-06-24T06:02:38.403Z,14.01
2018-06-24T06:04:13.101Z,13.93
2018-06-24T06:05:47.785Z,14.25
2018-06-24T06:07:24.121Z,14.33
2018-06-24T06:08:59.498Z,14.63
2018-06-24T06:10:34.652Z,15.04
2018-06-24T06:12:11.049Z,15.10
2018-06-24T06:13:46.283Z,14.86
2018-06-24T06:15:21.028Z,15.04
2018-06-24T06:16:55.944Z,15.35
2018-06-24T06:18:30.674Z,14.69
2018-06-24T06:20:05.615Z,14.82
2018-06-24T06:21:43.549Z,15.12
2018-06-24T06:23:18.339Z,15.41
2018-06-24T06:24:53.395Z,15.55
2018-06-24T06:26:28.755Z,15.35
2018-06-24T06:28:04.768Z,15.11
2018-06-24T06:29:39.507Z,14.70
2018-06-24T06:31:14.230Z,14.67
2018-06-24T06:32:49.956Z,14.74
2018-06-24T06:34:25.220Z,14.54
2018-06-24T06:35:59.986Z,14.47
2018-06-24T06:37:35.134Z,14.21
2018-06-24T06:39:11.045Z,14.28
2018-06-24T06:40:45.666Z,13.87
2018-06-24T06:42:23.218Z,13.68
2018-06-24T06:43:57.910Z,13.50
2018-06-24T06:45:32.849Z,13.67
2018-06-24T06:47:08.016Z,13.69
2018-06-24T06:48:42.670Z,13.54
2018-06-24T06:50:18.962Z,13.48
2018-06-24T06:51:53.658Z,13.28
2018-06-24T06:53:30.003Z,13.25
2018-06-24T06:55:05.030Z,13.70
2018-06-24T06:56:39.799Z,13.61
2018-06-24T06:58:14.440Z,13.52
2018-06-24T06:59:49.946Z,13.41
2018-06-24T07:01:25.340Z,13.44
2018-06-24T07:03:00.524Z,13.33
2018-06-24T07:04:35.465Z,13.50
2018-06-24T07:06:10.374Z,13.54
2018-06-24T07:07:47.854Z,13.46
2018-06-24T07:09:22.563Z,13.38
2018-06-24T07:10:57.581Z,13.40
2018-06-24T07:12:32.371Z,13.46
2018-06-24T07:14:08.550Z,13.45
2018-06-24T07:15:43.524Z,13.18
2018-06-24T07:17:19.005Z,13.53
2018-06-24T07:18:55.483Z,13.52
2018-06-24T07:20:30.405Z,13.40
2018-06-24T07:22:05.814Z,13.38
2018-06-24T07:23:40.610Z,13.34
2018-06-24T07:25:17.345Z,13.48
2018-06-24T07:26:53.163Z,13.39
2018-06-24T07:28:27.823Z,13.69
2018-06-24T07:30:05.325Z,13.77
2018-06-24T07:31:40.713Z,13.75
2018-06-24T07:33:21.870Z,13.89
2018-06-24T07:34:56.733Z,13.83
2018-06-24T07:36:35.953Z,13.83
2018-06-24T07:38:15.144Z,13.94
2018-06-24T07:39:53.375Z,13.82
2018-06-24T07:41:32.331Z,13.64
2018-06-24T07:44:50.399Z,13.55
2018-06-24T07:46:26.113Z,13.57
2018-06-24T07:48:03.530Z,13.86
2018-06-24T07:49:39.955Z,13.99
2018-06-24T07:51:16.905Z,13.95
2018-06-24T07:52:55.716Z,14.00
2018-06-24T07:54:32.116Z,14.08
2018-06-24T07:56:07.545Z,14.06
2018-06-24T07:57:43.261Z,14.04
2018-06-24T07:59:18.731Z,13.83
2018-06-24T08:00:54.276Z,13.97
2018-06-24T08:02:29.670Z,14.23
2018-06-24T08:04:04.521Z,14.16
2018-06-24T08:05:40.968Z,13.96
2018-06-24T08:07:17.467Z,14.05
2018-06-24T08:08:53.756Z,14.34
2018-06-24T08:10:30.431Z,14.32
2018-06-24T08:12:07.434Z,14.38
2018-06-24T08:13:43.396Z,14.43
2018-06-24T08:15:20.409Z,14.30
2018-06-24T08:16:57.659Z,14.13
2018-06-24T08:18:33.424Z,14.00
2018-06-24T08:20:08.736Z,14.14
2018-06-24T08:21:45.961Z,14.16
2018-06-24T08:23:21.416Z,14.33
2018-06-24T08:24:57.618Z,14.46
2018-06-24T08:26:33.799Z,14.16
2018-06-24T08:28:09.488Z,14.05
2018-06-24T08:29:44.371Z,14.17
2018-06-24T08:31:19.223Z,14.17
2018-06-24T08:32:54.732Z,14.30
2018-06-24T08:34:30.787Z,14.33
2018-06-24T08:36:05.813Z,14.63
2018-06-24T08:37:40.861Z,14.76
2018-06-24T08:39:15.633Z,14.50
2018-06-24T08:40:50.458Z,14.79
2018-06-24T08:42:27.382Z,14.75
2018-06-24T08:44:09.640Z,14.54
2018-06-24T08:45:44.727Z,14.58
2018-06-24T08:49:04.566Z,14.57
2018-06-24T08:50:42.078Z,14.73
2018-06-24T08:52:21.532Z,14.58
2018-06-24T08:53:56.716Z,14.53
2018-06-24T08:55:31.550Z,14.45
2018-06-24T08:57:06.543Z,14.70
2018-06-24T08:58:43.489Z,14.63
2018-06-24T09:00:19.503Z,14.48
2018-06-24T09:01:55.601Z,14.58
2018-06-24T09:03:38.469Z,14.83
2018-06-24T09:05:13.609Z,14.99
2018-06-24T09:06:48.797Z,14.75
2018-06-24T09:08:23.676Z,14.69
2018-06-24T09:10:03.657Z,14.67
2018-06-24T09:11:40.242Z,14.60
2018-06-24T09:13:18.329Z,14.97
2018-06-24T09:14:55.721Z,14.60
2018-06-24T09:16:30.789Z,14.60
2018-06-24T09:18:09.264Z,14.68
2018-06-24T09:19:45.555Z,14.58
2018-06-24T09:21:23.765Z,14.62
2018-06-24T09:22:59.499Z,14.15
2018-06-24T09:26:19.218Z,14.30
2018-06-24T09:27:57.472Z,14.16
2018-06-24T09:29:34.341Z,14.44
2018-06-24T09:31:17.379Z,14.33
2018-06-24T09:32:56.867Z,14.53
2018-06-24T09:34:35.313Z,14.70
2018-06-24T09:36:16.356Z,14.95
2018-06-24T09:37:54.062Z,15.00
2018-06-24T09:39:47.948Z,14.74
2018-06-24T09:41:23.530Z,14.44
2018-06-24T09:43:00.221Z,14.47
2018-06-24T09:44:39.109Z,15.12
2018-06-24T09:46:17.067Z,15.43
2018-06-24T09:47:53.946Z,15.76
2018-06-24T09:49:28.769Z,15.71
2018-06-24T09:51:07.771Z,15.93
2018-06-24T09:52:46.763Z,15.78
2018-06-24T09:54:22.642Z,16.19
2018-06-24T09:56:01.014Z,16.02
2018-06-24T09:57:39.025Z,15.88
2018-06-24T09:59:14.324Z,16.22
2018-06-24T10:00:49.384Z,16.10
2018-06-24T10:02:25.735Z,15.75
2018-06-24T10:04:00.649Z,15.56
2018-06-24T10:05:36.219Z,15.93
2018-06-24T10:07:11.601Z,15.74
2018-06-24T10:08:46.758Z,16.25
2018-06-24T10:10:22.235Z,15.86
2018-06-24T10:11:59.153Z,15.49
2018-06-24T10:13:35.576Z,15.58
2018-06-24T10:15:13.830Z,15.68
2018-06-24T10:16:57.351Z,15.94
2018-06-24T10:18:36.365Z,16.05
2018-06-24T10:20:16.492Z,15.99
2018-06-24T10:22:03.802Z,15.85
2018-06-24T10:23:42.084Z,15.70
2018-06-24T10:25:19.578Z,15.26
2018-06-24T10:27:00.509Z,15.40
2018-06-24T10:28:39.966Z,15.27
2018-06-24T10:30:19.995Z,15.51
2018-06-24T10:31:59.345Z,15.54
2018-06-24T10:33:41.187Z,15.50
2018-06-24T10:35:16.848Z,15.55
2018-06-24T10:36:52.621Z,15.75
2018-06-24T10:38:28.301Z,15.72
2018-06-24T10:40:04.458Z,15.88
2018-06-24T10:41:39.318Z,16.16
2018-06-24T10:43:17.099Z,16.02
2018-06-24T10:44:53.448Z,15.93
2018-06-24T10:46:30.390Z,16.71
2018-06-24T10:48:10.466Z,16.88
2018-06-24T10:49:49.630Z,16.42
2018-06-24T10:51:27.787Z,16.40
2018-06-24T10:53:10.550Z,16.19
2018-06-24T10:54:47.965Z,15.93
2018-06-24T10:56:26.844Z,15.91
2018-06-24T10:59:46.075Z,15.91
2018-06-24T11:01:27.775Z,16.34
2018-06-24T11:05:02.533Z,17.07
2018-06-24T11:06:37.467Z,17.72
2018-06-24T11:08:13.924Z,17.06
2018-06-24T11:09:54.288Z,17.05
2018-06-24T11:11:30.935Z,17.12
2018-06-24T11:13:08.742Z,16.74
2018-06-24T11:14:45.873Z,16.82
2018-06-24T11:16:22.061Z,17.01
2018-06-24T11:18:03.128Z,16.79
2018-06-24T11:19:40.440Z,17.04
2018-06-24T11:21:23.376Z,16.97
2018-06-24T11:23:00.049Z,16.81
2018-06-24T11:24:37.453Z,17.53
2018-06-24T11:26:14.483Z,17.53
2018-06-24T11:27:51.531Z,17.56
2018-06-24T11:29:28.691Z,17.77
2018-06-24T11:31:04.897Z,18.51
2018-06-24T11:32:40.031Z,18.19
2018-06-24T11:34:16.308Z,18.35
2018-06-24T11:35:52.229Z,17.64
2018-06-24T11:37:27.238Z,17.99
2018-06-24T11:39:04.478Z,17.86
2018-06-24T11:40:40.472Z,18.66
2018-06-24T11:42:15.599Z,18.52
2018-06-24T11:43:53.773Z,18.49
2018-06-24T11:45:29.813Z,18.11
2018-06-24T11:47:04.855Z,18.27
2018-06-24T11:48:40.724Z,18.60
2018-06-24T11:50:15.781Z,18.48
2018-06-24T11:51:51.739Z,18.70
2018-06-24T11:53:27.600Z,18.62
2018-06-24T11:55:04.544Z,17.95
2018-06-24T11:56:40.593Z,17.68
2018-06-24T11:58:16.316Z,17.81
2018-06-24T12:01:25.973Z,17.23
2018-06-24T12:03:02.590Z,17.43
2018-06-24T12:04:37.544Z,16.86
2018-06-24T12:06:15.500Z,16.54
2018-06-24T12:07:55.593Z,16.49
2018-06-24T12:09:31.901Z,16.93
2018-06-24T12:11:10.681Z,16.54
2018-06-24T12:12:50.691Z,16.75
2018-06-24T12:14:27.265Z,16.81
2018-06-24T12:16:02.696Z,16.86
2018-06-24T12:17:39.323Z,16.87
2018-06-24T12:19:15.852Z,17.00
2018-06-24T12:20:53.654Z,17.02
2018-06-24T12:22:28.444Z,17.22
2018-06-24T12:24:05.701Z,16.98
2018-06-24T12:25:41.187Z,17.30
2018-06-24T12:27:18.959Z,17.15
2018-06-24T12:28:55.022Z,16.97
2018-06-24T12:30:32.255Z,17.08
2018-06-24T12:32:10.259Z,16.93
2018-06-24T12:33:47.612Z,17.04
2018-06-24T12:35:24.266Z,16.90
2018-06-24T12:37:00.040Z,16.86
2018-06-24T12:38:37.299Z,16.54
2018-06-24T12:40:14.345Z,16.52
2018-06-24T12:41:54.301Z,15.91
2018-06-24T12:43:30.254Z,16.09
2018-06-24T12:45:11.318Z,15.96
2018-06-24T12:46:55.445Z,16.03
2018-06-24T12:48:35.642Z,15.85
2018-06-24T12:50:20.256Z,15.97
2018-06-24T12:51:57.585Z,15.71
2018-06-24T12:53:33.605Z,15.93
2018-06-24T12:55:22.344Z,15.88
2018-06-24T12:57:02.373Z,15.81
2018-06-24T12:58:45.682Z,15.89
2018-06-24T13:00:22.936Z,15.92
2018-06-24T13:02:19.889Z,16.11
2018-06-24T13:04:05.466Z,16.20
2018-06-24T13:05:46.089Z,15.86
2018-06-24T13:07:24.732Z,16.13
2018-06-24T13:09:06.532Z,16.35
2018-06-24T13:10:42.211Z,16.52
2018-06-24T13:12:19.687Z,16.80
2018-06-24T13:13:57.097Z,16.78
2018-06-24T13:15:34.611Z,16.43
2018-06-24T13:17:12.356Z,16.56
2018-06-24T13:18:52.279Z,16.57
2018-06-24T13:20:30.028Z,16.52
2018-06-24T13:22:10.335Z,16.68
2018-06-24T13:23:47.444Z,16.49
2018-06-24T13:25:34.135Z,16.55
2018-06-24T13:27:13.843Z,16.80
2018-06-24T13:28:51.029Z,16.60
2018-06-24T13:30:27.965Z,16.59
2018-06-24T13:32:04.853Z,16.73
2018-06-24T13:33:44.746Z,16.73
2018-06-24T13:35:21.587Z,16.54
2018-06-24T13:36:58.113Z,16.40
2018-06-24T13:38:36.073Z,16.21
2018-06-24T13:40:14.843Z,16.04
2018-06-24T13:41:53.617Z,16.19
2018-06-24T13:43:30.624Z,15.94
2018-06-24T13:45:18.782Z,15.76
2018-06-24T13:46:55.478Z,15.80
2018-06-24T13:48:32.803Z,15.89
2018-06-24T13:50:14.388Z,15.98
2018-06-24T13:51:54.151Z,15.83
2018-06-24T13:53:32.533Z,15.89
2018-06-24T13:55:14.792Z,15.86
2018-06-24T13:56:52.092Z,16.00
2018-06-24T13:58:33.612Z,16.23
2018-06-24T14:00:15.605Z,16.07
2018-06-24T14:01:51.783Z,15.92
2018-06-24T14:03:30.414Z,15.99
2018-06-24T14:05:10.741Z,15.90
2018-06-24T14:06:56.926Z,15.82
2018-06-24T14:08:34.496Z,15.94
2018-06-24T14:15:20.249Z,15.82
2018-06-24T14:17:00.474Z,15.15
2018-06-24T14:18:40.597Z,15.02
2018-06-24T14:20:18.376Z,15.09
2018-06-24T14:22:00.060Z,15.40
2018-06-24T14:23:36.324Z,15.57
2018-06-24T14:25:20.330Z,15.43
2018-06-24T14:27:01.643Z,15.47
2018-06-24T14:28:40.626Z,15.55
2018-06-24T14:30:24.033Z,15.68
2018-06-24T14:31:59.616Z,15.68
2018-06-24T14:33:36.612Z,15.58
2018-06-24T14:35:16.052Z,15.66
2018-06-24T14:36:52.597Z,15.70
2018-06-24T14:38:29.356Z,15.25
2018-06-24T14:40:06.073Z,15.02
2018-06-24T14:41:42.121Z,15.26
2018-06-24T14:43:31.716Z,15.45
2018-06-24T14:45:12.697Z,15.26
2018-06-24T14:46:54.084Z,15.30
2018-06-24T14:48:31.835Z,15.04
2018-06-24T14:50:10.012Z,15.11
2018-06-24T14:51:45.656Z,15.07
2018-06-24T14:53:25.185Z,14.97
2018-06-24T14:55:06.441Z,14.75
2018-06-24T14:56:45.080Z,14.70
2018-06-24T14:58:24.661Z,14.73
2018-06-24T15:00:06.242Z,14.80
2018-06-24T15:01:46.833Z,14.77
2018-06-24T15:03:27.042Z,14.72
2018-06-24T15:05:06.779Z,14.76
2018-06-24T15:06:53.990Z,14.81
2018-06-24T15:08:30.561Z,14.61
2018-06-24T15:10:06.454Z,14.81
2018-06-24T15:11:44.157Z,14.91
2018-06-24T15:13:24.207Z,14.82
2018-06-24T15:15:00.980Z,14.89
2018-06-24T15:16:40.437Z,14.83
2018-06-24T15:18:17.442Z,14.69
2018-06-24T15:19:58.540Z,14.58
2018-06-24T15:21:35.347Z,14.28
2018-06-24T15:23:11.301Z,14.23
2018-06-24T15:24:47.554Z,14.33
2018-06-24T15:26:28.044Z,14.38
2018-06-24T15:28:07.543Z,14.40
2018-06-24T15:29:44.193Z,14.39
2018-06-24T15:31:20.098Z,14.29
2018-06-24T15:32:58.638Z,14.19
2018-06-24T15:34:46.496Z,14.22
2018-06-24T15:36:25.362Z,14.08
2018-06-24T15:38:10.447Z,13.98
2018-06-24T15:39:49.040Z,13.98
2018-06-24T15:41:26.285Z,13.90
2018-06-24T15:43:01.906Z,13.80
2018-06-24T15:44:40.402Z,13.82
2018-06-24T15:46:19.117Z,13.74
2018-06-24T15:48:00.678Z,13.74
2018-06-24T15:49:38.429Z,13.75
2018-06-24T15:53:11.502Z,14.00
2018-06-24T15:54:50.694Z,14.10
2018-06-24T15:56:34.517Z,14.14
2018-06-24T15:58:15.401Z,14.32
2018-06-24T15:59:56.794Z,14.03
2018-06-24T16:01:52.490Z,14.19
2018-06-24T16:03:33.297Z,14.11
2018-06-24T16:07:02.729Z,13.93
2018-06-24T16:08:47.205Z,13.74
2018-06-24T16:10:25.090Z,13.73
2018-06-24T16:13:44.064Z,13.96
2018-06-24T16:15:24.945Z,13.73
2018-06-24T16:17:04.741Z,13.67
2018-06-24T16:18:45.511Z,13.68
2018-06-24T16:20:28.718Z,13.75
2018-06-24T16:22:14.733Z,13.75
2018-06-24T16:24:04.456Z,13.65
2018-06-24T16:25:45.353Z,13.59
2018-06-24T16:27:25.296Z,13.69
2018-06-24T16:29:04.325Z,13.54
2018-06-24T16:30:51.920Z,13.62
2018-06-24T16:32:36.524Z,13.61
2018-06-24T16:34:22.374Z,13.51
2018-06-24T16:36:07.507Z,13.60
2018-06-24T16:37:49.307Z,13.52
2018-06-24T16:39:27.299Z,13.45
2018-06-24T16:41:07.693Z,13.55
2018-06-24T16:42:45.617Z,13.61
2018-06-24T16:44:23.426Z,13.62
2018-06-24T16:46:10.792Z,13.49
2018-06-24T16:47:54.026Z,13.45
2018-06-24T16:49:35.913Z,13.32
2018-06-24T16:51:15.031Z,13.24
2018-06-24T16:52:56.672Z,13.20
2018-06-24T16:54:40.487Z,13.17
2018-06-24T16:56:17.113Z,13.13
2018-06-24T16:57:53.741Z,13.09
2018-06-24T16:59:30.206Z,12.96
2018-06-24T17:01:12.229Z,13.00
2018-06-24T17:02:53.608Z,13.13
2018-06-24T17:04:35.004Z,13.04
2018-06-24T17:06:13.213Z,12.95
2018-06-24T17:07:49.433Z,13.04
2018-06-24T17:09:25.554Z,13.09
2018-06-24T17:11:02.736Z,13.23
2018-06-24T17:12:39.221Z,13.04
2018-06-24T17:14:16.122Z,13.07
2018-06-24T17:15:54.025Z,13.07
2018-06-24T17:17:33.584Z,13.17
2018-06-24T17:19:13.721Z,13.13
2018-06-24T17:20:52.359Z,13.24
2018-06-24T17:22:32.085Z,13.38
2018-06-24T17:24:16.111Z,13.15
2018-06-24T17:25:57.878Z,13.00
2018-06-24T17:27:35.710Z,12.91
2018-06-24T17:29:13.090Z,13.03
2018-06-24T17:30:48.563Z,12.95
2018-06-24T17:32:26.513Z,12.91
2018-06-24T17:34:10.705Z,12.88
2018-06-24T17:35:47.473Z,12.80
2018-06-24T17:37:25.277Z,12.87
2018-06-24T17:39:02.864Z,12.80
2018-06-24T17:40:43.897Z,12.68
2018-06-24T17:42:25.565Z,12.66
2018-06-24T17:44:08.576Z,12.70
2018-06-24T17:45:49.421Z,12.73
2018-06-24T17:47:28.047Z,12.59
2018-06-24T17:49:06.037Z,12.66
2018-06-24T17:50:46.810Z,12.78
2018-06-24T17:52:26.552Z,12.67
2018-06-24T17:54:06.401Z,12.69
2018-06-24T17:55:45.053Z,12.72
2018-06-24T17:57:22.792Z,12.69
2018-06-24T17:59:04.122Z,12.51
2018-06-24T18:00:41.086Z,12.46
2018-06-24T18:02:21.262Z,12.48
2018-06-24T18:04:00.989Z,12.53
2018-06-24T18:05:39.312Z,12.43
2018-06-24T18:07:17.046Z,12.44
2018-06-24T18:08:54.633Z,12.35
2018-06-24T18:10:32.290Z,12.42
2018-06-24T18:12:11.227Z,12.34
2018-06-24T18:13:50.979Z,12.29
2018-06-24T18:15:34.526Z,12.36
2018-06-24T18:17:15.761Z,12.33
2018-06-24T18:18:56.122Z,12.19
2018-06-24T18:20:34.703Z,12.17
2018-06-24T18:22:12.499Z,12.30
2018-06-24T18:23:48.401Z,12.14
2018-06-24T18:25:26.648Z,12.19
2018-06-24T18:27:16.192Z,12.23
2018-06-24T18:28:51.828Z,12.13
2018-06-24T18:30:30.687Z,12.12
2018-06-24T18:32:07.103Z,11.99
2018-06-24T18:33:44.004Z,12.01
2018-06-24T18:35:22.367Z,11.97
2018-06-24T18:36:58.430Z,12.08
2018-06-24T18:38:37.314Z,11.99
2018-06-24T18:40:17.271Z,12.03
2018-06-24T18:41:58.261Z,12.04
2018-06-24T18:43:36.574Z,12.06
2018-06-24T18:45:29.446Z,11.99
2018-06-24T18:47:08.234Z,11.97
2018-06-24T18:48:48.913Z,11.92
2018-06-24T18:50:32.307Z,12.00
2018-06-24T18:54:01.404Z,11.95
2018-06-24T18:55:43.474Z,11.98
2018-06-24T18:57:24.862Z,11.99
2018-06-24T18:59:21.332Z,12.06
2018-06-24T19:01:01.880Z,11.93
2018-06-24T19:02:41.457Z,11.97
2018-06-24T19:04:22.021Z,12.01
2018-06-24T19:06:05.092Z,12.05
2018-06-24T19:09:38.107Z,11.86
2018-06-24T19:11:18.344Z,11.95
2018-06-24T19:13:03.073Z,11.99
2018-06-24T19:14:39.657Z,11.89
2018-06-24T19:16:20.237Z,11.96
2018-06-24T19:17:56.513Z,11.92
2018-06-24T19:19:35.421Z,11.92
2018-06-24T19:21:12.771Z,11.91
2018-06-24T19:22:50.380Z,11.90
2018-06-24T19:24:28.240Z,11.90
2018-06-24T19:26:06.154Z,11.86
2018-06-24T19:27:42.511Z,11.92
2018-06-24T19:29:18.318Z,11.94
2018-06-24T19:31:00.047Z,11.91
2018-06-24T19:32:43.282Z,11.86
2018-06-24T19:34:21.230Z,11.79
2018-06-24T19:36:02.942Z,11.89
2018-06-24T19:37:39.965Z,11.88
2018-06-24T19:39:16.864Z,11.79
2018-06-24T19:40:54.502Z,11.80
2018-06-24T19:42:32.616Z,11.79
2018-06-24T19:44:09.810Z,11.83
2018-06-24T19:45:50.434Z,11.90
2018-06-24T19:47:27.482Z,11.89
2018-06-24T19:49:10.683Z,11.81
2018-06-24T19:51:00.131Z,11.84
2018-06-24T19:52:38.925Z,11.81
2018-06-24T19:54:19.631Z,11.82
2018-06-24T19:55:57.441Z,11.79
2018-06-24T19:57:35.181Z,11.75
2018-06-24T19:59:12.438Z,11.76
2018-06-24T20:02:40.529Z,11.77
2018-06-24T20:04:23.804Z,11.80
2018-06-24T20:06:05.025Z,11.85
2018-06-24T20:07:41.997Z,11.80
2018-06-24T20:09:20.578Z,11.84
2018-06-24T20:11:00.883Z,11.84
2018-06-24T20:12:37.414Z,11.86
2018-06-24T20:14:14.492Z,11.83
2018-06-24T20:15:50.744Z,11.84
2018-06-24T20:17:32.530Z,11.82
2018-06-24T20:19:09.529Z,11.83
2018-06-24T20:20:46.567Z,11.78
2018-06-24T20:22:22.114Z,11.78
2018-06-24T20:23:59.921Z,11.81
2018-06-24T20:25:41.767Z,11.82
2018-06-24T20:27:17.937Z,11.89
2018-06-24T20:28:54.013Z,11.86
2018-06-24T20:30:37.699Z,11.86
2018-06-24T20:32:14.547Z,11.80
2018-06-24T20:33:54.747Z,11.86
2018-06-24T20:35:31.508Z,11.86
2018-06-24T20:37:14.851Z,11.85
2018-06-24T20:38:50.606Z,11.79
2018-06-24T20:40:29.744Z,11.84
2018-06-24T20:42:07.196Z,11.82
2018-06-24T20:44:00.128Z,11.86
2018-06-24T20:45:41.134Z,11.88
2018-06-24T20:47:19.534Z,11.83
2018-06-24T20:49:00.829Z,11.80
2018-06-24T20:50:38.620Z,11.82
2018-06-24T20:52:17.354Z,11.86
2018-06-24T20:53:52.404Z,11.87
2018-06-24T20:55:29.092Z,11.87
2018-06-24T20:57:06.477Z,11.86
2018-06-24T20:58:43.807Z,11.88
2018-06-24T21:00:21.961Z,11.87
2018-06-24T21:01:58.229Z,11.87
2018-06-24T21:03:34.125Z,11.87
2018-06-24T21:05:17.714Z,11.89
2018-06-24T21:06:55.542Z,11.92
2018-06-24T21:08:35.403Z,11.91
2018-06-24T21:10:15.291Z,11.90
2018-06-24T21:11:54.446Z,11.97
2018-06-24T21:13:33.227Z,11.95
2018-06-24T21:15:15.542Z,11.91
2018-06-24T21:16:54.390Z,11.95
2018-06-24T21:18:40.695Z,11.83
2018-06-24T21:20:19.740Z,11.79
2018-06-24T21:22:01.677Z,11.81
2018-06-24T21:23:45.378Z,11.86
2018-06-24T21:25:24.298Z,11.82
2018-06-24T21:27:05.464Z,11.79
2018-06-24T21:28:43.254Z,11.79
2018-06-24T21:30:23.494Z,11.79
2018-06-24T21:32:01.298Z,11.72